Time;durP1;ratioP1;P1;durP2;ratioP2;P2;SDS_P1;SDS_P2;PMS_P1;PMS_P2;Temp;Humidity;BMP_temperature;BMP_pressure;BME280_temperature;BME280_humidity;BME280_pressure;Samples;Min_cycle;Max_cycle;Signal;HPM_P1;HPM_P2
2023/09/12 00:01:10;;;;;;;21.30;16.20;;;;;;;11.64;100.00;101073.80;105964;1256;73521;-84
2023/09/12 00:03:38;;;;;;;20.00;14.70;;;;;;;11.61;100.00;101070.81;105932;1250;64007;-86
2023/09/12 00:06:06;;;;;;;20.50;15.10;;;;;;;11.59;100.00;101072.16;106031;1251;71680;-88
2023/09/12 00:08:34;;;;;;;19.60;15.30;;;;;;;11.57;100.00;101071.77;106071;1251;62033;-88
2023/09/12 00:11:03;;;;;;;19.50;15.10;;;;;;;11.55;100.00;101071.20;106090;1257;60348;-91
2023/09/12 00:13:31;;;;;;;23.70;14.40;;;;;;;11.52;100.00;101071.69;106124;1251;72676;-90
2023/09/12 00:15:58;;;;;;;18.20;15.80;;;;;;;11.50;100.00;101073.91;106158;1256;62294;-87
2023/09/12 00:18:26;;;;;;;22.80;15.30;;;;;;;11.50;100.00;101075.52;106147;1257;72702;-86
2023/09/12 00:20:53;;;;;;;18.30;14.70;;;;;;;11.48;100.00;101072.12;107161;1250;60524;-87
2023/09/12 00:23:22;;;;;;;21.70;14.60;;;;;;;11.47;100.00;101071.83;107015;1250;60464;-87
2023/09/12 00:25:51;;;;;;;19.30;15.50;;;;;;;11.45;100.00;101074.56;106531;1251;73099;-88
2023/09/12 00:28:20;;;;;;;23.80;16.20;;;;;;;11.42;100.00;101075.23;106261;1250;63271;-86
2023/09/12 00:30:47;;;;;;;19.20;14.90;;;;;;;11.40;100.00;101076.55;106120;1250;70493;-87
2023/09/12 00:33:15;;;;;;;21.40;16.90;;;;;;;11.40;100.00;101076.25;105984;1251;60976;-90
2023/09/12 00:35:43;;;;;;;18.90;15.80;;;;;;;11.39;100.00;101074.88;106196;1251;60454;-84
2023/09/12 00:38:11;;;;;;;21.90;15.10;;;;;;;11.38;100.00;101073.20;106149;1250;71821;-88
2023/09/12 00:40:38;;;;;;;20.40;16.00;;;;;;;11.36;100.00;101079.75;106098;1251;62579;-88
2023/09/12 00:43:06;;;;;;;18.70;15.40;;;;;;;11.34;100.00;101074.83;106146;1250;73105;-85
2023/09/12 00:45:33;;;;;;;18.60;14.40;;;;;;;11.31;100.00;101078.48;106010;1250;61664;-88
2023/09/12 00:48:01;;;;;;;20.00;14.40;;;;;;;11.28;100.00;101076.73;106090;1256;60502;-86
2023/09/12 00:50:29;;;;;;;20.00;15.40;;;;;;;11.27;100.00;101083.61;106038;1251;74042;-89
2023/09/12 00:52:56;;;;;;;17.30;13.70;;;;;;;11.26;100.00;101080.70;105926;1259;62415;-89
2023/09/12 00:55:24;;;;;;;22.50;14.90;;;;;;;11.24;100.00;101084.84;106070;1251;72436;-89
2023/09/12 00:57:52;;;;;;;18.40;14.80;;;;;;;11.20;100.00;101084.48;106089;1251;60985;-87
2023/09/12 01:00:21;;;;;;;18.60;14.70;;;;;;;11.17;100.00;101081.34;106225;1251;60437;-86
2023/09/12 01:02:49;;;;;;;17.60;14.60;;;;;;;11.15;100.00;101080.38;108400;1255;72642;-87
2023/09/12 01:05:19;;;;;;;23.40;14.40;;;;;;;11.14;100.00;101083.79;109794;1250;62471;-86
2023/09/12 01:07:46;;;;;;;16.50;14.30;;;;;;;11.14;100.00;101081.35;108852;1252;74193;-85
2023/09/12 01:22:59;;;;;;;16.70;13.70;;;;;;;11.16;100.00;101083.16;102526;1291;613306;-90
2023/09/12 01:25:36;;;;;;;15.80;13.50;;;;;;;11.15;100.00;101084.95;105318;1264;61910;-91
2023/09/12 01:28:03;;;;;;;18.00;14.30;;;;;;;11.15;100.00;101083.71;105165;1264;60425;-86
2023/09/12 01:30:31;;;;;;;19.20;14.80;;;;;;;11.15;100.00;101085.45;105247;1267;70866;-91
2023/09/12 01:32:58;;;;;;;18.10;14.80;;;;;;;11.15;100.00;101083.20;105221;1266;63958;-89
2023/09/12 01:35:25;;;;;;;19.90;15.60;;;;;;;11.12;100.00;101085.30;105356;1263;199883;-88
2023/09/12 01:37:52;;;;;;;18.20;15.10;;;;;;;11.09;100.00;101084.59;105517;1263;60614;-90
2023/09/12 01:40:20;;;;;;;18.10;14.80;;;;;;;11.06;100.00;101087.36;105684;1257;60178;-87
2023/09/12 01:42:47;;;;;;;17.90;14.90;;;;;;;11.05;100.00;101082.04;106258;1261;72167;-86
2023/09/12 01:45:17;;;;;;;16.90;13.90;;;;;;;11.02;100.00;101082.19;107645;1257;62644;-87
2023/09/12 01:47:45;;;;;;;17.40;13.40;;;;;;;10.98;100.00;101083.05;106383;1257;72571;-85
2023/09/12 01:50:12;;;;;;;17.00;14.30;;;;;;;10.95;100.00;101079.89;106359;1258;60921;-86
2023/09/12 01:52:40;;;;;;;16.20;13.50;;;;;;;10.92;100.00;101077.99;106123;1254;59327;-89
2023/09/12 01:55:09;;;;;;;14.70;13.10;;;;;;;10.88;100.00;101077.52;106122;1258;71910;-88
2023/09/12 01:57:36;;;;;;;20.90;12.60;;;;;;;10.85;100.00;101075.56;107192;1254;62415;-84
2023/09/12 02:00:04;;;;;;;15.30;13.00;;;;;;;10.84;100.00;101074.23;107930;1254;71252;-83
2023/09/12 02:02:32;;;;;;;14.50;13.00;;;;;;;10.84;100.00;101078.61;107491;1254;60696;-86
2023/09/12 02:05:19;;;;;;;13.90;11.90;;;;;;;10.83;100.00;101074.80;108007;1256;59528;-86
2023/09/12 02:07:46;;;;;;;16.00;13.20;;;;;;;10.83;100.00;101078.14;106276;1257;73038;-86
2023/09/12 02:10:13;;;;;;;26.20;14.70;;;;;;;10.84;100.00;101077.04;108624;1253;62359;-86
2023/09/12 02:12:40;;;;;;;19.20;13.10;;;;;;;10.85;100.00;101074.17;108629;1254;71032;-87
2023/09/12 02:15:08;;;;;;;18.60;13.50;;;;;;;10.86;100.00;101077.81;108573;1254;62044;-85
2023/09/12 02:17:35;;;;;;;24.10;13.50;;;;;;;10.86;100.00;101073.95;108948;1253;59020;-84
2023/09/12 02:20:04;;;;;;;18.90;14.20;;;;;;;10.86;100.00;101073.40;109310;1254;71772;-85
2023/09/12 02:23:08;;;;;;;16.80;12.80;;;;;;;10.90;100.00;101065.70;105864;1291;599527;-86
2023/09/12 02:25:35;;;;;;;15.70;12.60;;;;;;;10.89;100.00;101067.64;108264;1265;58761;-86
2023/09/12 02:28:02;;;;;;;15.50;13.50;;;;;;;10.90;100.00;101065.35;106882;1265;59361;-85
2023/09/12 02:30:31;;;;;;;15.10;12.20;;;;;;;10.88;100.00;101065.09;107480;1266;71160;-85
2023/09/12 02:32:59;;;;;;;14.30;12.40;;;;;;;10.88;100.00;101066.67;107083;1265;62481;-86
2023/09/12 02:35:28;;;;;;;15.00;12.50;;;;;;;10.87;100.00;101067.75;106215;1264;192236;-86
2023/09/12 02:37:54;;;;;;;14.50;12.70;;;;;;;10.86;100.00;101071.85;106256;1270;61879;-87
2023/09/12 02:40:21;;;;;;;12.80;11.40;;;;;;;10.84;100.00;101069.18;105616;1266;60076;-85
2023/09/12 02:42:48;;;;;;;13.00;11.70;;;;;;;10.81;100.00;101070.69;105998;1268;71220;-86
2023/09/12 02:45:15;;;;;;;18.80;13.20;;;;;;;10.81;100.00;101071.41;105509;1265;62586;-86
2023/09/12 02:47:43;;;;;;;15.80;12.40;;;;;;;10.80;100.00;101071.46;105224;1268;71436;-84
2023/09/12 02:50:10;;;;;;;16.40;13.90;;;;;;;10.79;100.00;101069.20;105265;1268;62078;-86
2023/09/12 02:52:37;;;;;;;16.30;13.40;;;;;;;10.79;100.00;101072.89;105827;1266;60546;-84
2023/09/12 02:55:04;;;;;;;17.00;13.30;;;;;;;10.78;100.00;101076.08;106184;1266;73137;-83
2023/09/12 02:57:32;;;;;;;17.80;13.90;;;;;;;10.77;100.00;101078.08;106329;1264;62418;-86
2023/09/12 02:59:59;;;;;;;17.10;13.30;;;;;;;10.75;100.00;101080.09;105254;1266;72666;-85
2023/09/12 03:02:29;;;;;;;16.90;13.00;;;;;;;10.74;100.00;101081.40;105177;1269;60727;-87
2023/09/12 03:04:55;;;;;;;16.60;12.70;;;;;;;10.74;100.00;101085.95;105077;1266;59626;-87
2023/09/12 03:07:22;;;;;;;19.80;14.20;;;;;;;10.73;100.00;101086.50;105024;1264;73108;-86
2023/09/12 03:09:55;;;;;;;16.10;12.70;;;;;;;10.72;100.00;101086.74;105064;1269;64276;-87
2023/09/12 03:12:21;;;;;;;36.10;17.30;;;;;;;10.71;100.00;101090.51;105290;1265;72911;-86
2023/09/12 03:14:49;;;;;;;19.00;14.70;;;;;;;10.68;100.00;101088.88;105312;1262;61928;-86
2023/09/12 03:17:16;;;;;;;22.10;14.40;;;;;;;10.67;100.00;101092.30;105396;1263;60163;-85
2023/09/12 03:19:43;;;;;;;28.80;15.20;;;;;;;10.66;100.00;101094.59;106216;1260;72156;-86
2023/09/12 03:22:10;;;;;;;23.20;13.60;;;;;;;10.66;100.00;101094.24;105616;1259;64100;-91
2023/09/12 03:24:37;;;;;;;19.40;13.60;;;;;;;10.66;100.00;101095.13;105853;1258;72682;-87
2023/09/12 03:27:04;;;;;;;24.10;12.50;;;;;;;10.65;100.00;101096.05;105641;1256;61872;-84
2023/09/12 03:29:33;;;;;;;17.20;13.60;;;;;;;10.64;100.00;101095.91;105687;1258;60110;-87
2023/09/12 03:32:00;;;;;;;21.80;13.90;;;;;;;10.63;100.00;101098.24;105750;1257;73060;-87
2023/09/12 03:34:27;;;;;;;20.60;14.70;;;;;;;10.62;100.00;101094.79;106028;1253;63882;-86
2023/09/12 03:36:54;;;;;;;20.00;14.00;;;;;;;10.62;100.00;101094.79;105892;1254;72626;-86
2023/09/12 03:39:21;;;;;;;22.30;14.30;;;;;;;10.63;100.00;101093.53;105936;1258;61861;-87
2023/09/12 03:41:48;;;;;;;21.20;13.60;;;;;;;10.64;100.00;101095.02;106496;1254;60704;-86
2023/09/12 03:44:15;;;;;;;23.60;14.40;;;;;;;10.67;100.00;101097.51;106072;1253;70760;-87
2023/09/12 03:46:42;;;;;;;25.30;13.80;;;;;;;10.69;100.00;101097.41;106000;1253;63772;-84
2023/09/12 03:49:08;;;;;;;18.80;13.90;;;;;;;10.72;100.00;101098.98;105827;1253;74009;-87
2023/09/12 03:51:37;;;;;;;27.00;15.70;;;;;;;10.74;100.00;101102.55;106406;1253;61872;-87
2023/09/12 03:54:07;;;;;;;27.80;16.00;;;;;;;10.77;100.00;101105.74;108880;1253;59264;-85
2023/09/12 03:56:34;;;;;;;30.20;13.90;;;;;;;10.81;100.00;101106.59;109624;1253;71821;-86
2023/09/12 03:59:01;;;;;;;26.80;12.30;;;;;;;10.85;100.00;101108.10;108976;1253;62439;-84
2023/09/12 04:01:28;;;;;;;29.10;14.40;;;;;;;10.88;100.00;101105.83;107659;1253;71662;-88
2023/09/12 04:03:54;;;;;;;20.80;14.40;;;;;;;10.92;100.00;101107.55;106553;1253;60988;-87
2023/09/12 04:06:22;;;;;;;27.30;13.70;;;;;;;10.96;100.00;101112.78;106780;1253;60122;-86
2023/09/12 04:08:49;;;;;;;21.30;14.30;;;;;;;11.00;100.00;101112.05;106608;1253;73099;-86
2023/09/12 04:11:16;;;;;;;16.90;13.00;;;;;;;11.04;100.00;101110.44;105868;1253;62804;-88
2023/09/12 04:13:45;;;;;;;24.80;13.80;;;;;;;11.07;100.00;101113.40;105793;1253;72434;-88
2023/09/12 04:16:12;;;;;;;27.50;13.70;;;;;;;11.10;100.00;101113.03;105942;1253;61873;-90
2023/09/12 04:18:39;;;;;;;19.40;12.70;;;;;;;11.14;100.00;101117.73;106061;1257;59647;-87
2023/09/12 04:21:07;;;;;;;22.70;13.90;;;;;;;11.17;100.00;101120.02;106274;1254;72952;-89
2023/09/12 04:23:34;;;;;;;25.30;14.60;;;;;;;11.22;100.00;101121.36;106003;1256;62645;-87
2023/09/12 04:26:03;;;;;;;27.60;14.80;;;;;;;11.27;100.00;101124.23;105976;1257;71443;-88
2023/09/12 04:28:30;;;;;;;20.70;13.30;;;;;;;11.32;100.00;101124.63;106053;1254;60661;-86
2023/09/12 04:31:03;;;;;;;20.10;14.30;;;;;;;11.39;100.00;101129.52;105938;1255;59627;-86
2023/09/12 04:33:30;;;;;;;22.90;15.10;;;;;;;11.47;100.00;101134.69;106347;1258;71064;-88
2023/09/12 04:35:59;;;;;;;24.70;15.60;;;;;;;11.55;100.00;101135.05;105903;1258;62729;-90
2023/09/12 04:38:26;;;;;;;21.40;15.50;;;;;;;11.64;100.00;101137.39;105947;1253;71445;-88
2023/09/12 04:41:02;;;;;;;24.60;14.90;;;;;;;11.73;100.00;101137.05;105915;1256;60693;-89
2023/09/12 04:43:29;;;;;;;39.20;16.10;;;;;;;11.84;100.00;101138.17;106505;1256;61328;-87
2023/09/12 04:45:56;;;;;;;22.10;15.40;;;;;;;11.96;100.00;101139.48;106422;1257;72540;-86
2023/09/12 04:48:23;;;;;;;26.90;13.90;;;;;;;12.13;100.00;101138.50;106411;1252;63359;-88
2023/09/12 04:50:51;;;;;;;19.00;14.50;;;;;;;12.33;100.00;101136.46;106144;1257;72957;-88
2023/09/12 04:53:18;;;;;;;26.00;13.40;;;;;;;12.50;100.00;101136.67;106325;1257;62785;-89
2023/09/12 04:55:44;;;;;;;27.70;15.10;;;;;;;12.66;100.00;101140.41;106268;1257;59582;-87
2023/09/12 04:58:11;;;;;;;28.20;15.10;;;;;;;12.88;100.00;101137.88;106150;1257;73071;-88
2023/09/12 05:00:39;;;;;;;29.30;14.20;;;;;;;13.25;100.00;101135.40;106197;1258;63856;-87
2023/09/12 05:03:06;;;;;;;38.70;15.30;;;;;;;13.80;100.00;101139.50;105816;1253;71426;-88
2023/09/12 05:05:36;;;;;;;30.10;14.20;;;;;;;14.52;100.00;101143.86;107836;1257;61167;-87
2023/09/12 05:08:03;;;;;;;28.70;11.60;;;;;;;15.34;100.00;101145.71;106530;1253;59601;-84
2023/09/12 05:10:31;;;;;;;21.30;11.80;;;;;;;16.19;100.00;101147.64;106433;1253;73092;-88
2023/09/12 05:12:58;;;;;;;20.50;11.50;;;;;;;17.02;100.00;101148.15;106691;1257;62585;-86
2023/09/12 05:15:25;;;;;;;19.40;11.60;;;;;;;17.84;100.00;101151.01;106518;1256;71256;-86
2023/09/12 05:17:52;;;;;;;15.00;10.70;;;;;;;18.63;100.00;101153.05;106104;1253;61524;-89
2023/09/12 05:20:19;;;;;;;18.30;10.50;;;;;;;19.37;100.00;101154.61;106958;1254;59649;-86
2023/09/12 05:22:46;;;;;;;13.40;10.40;;;;;;;19.96;100.00;101154.65;107916;1256;71866;-86
2023/09/12 05:25:12;;;;;;;12.10;10.40;;;;;;;20.44;100.00;101153.80;106690;1255;63487;-88
2023/09/12 05:27:39;;;;;;;19.50;10.80;;;;;;;20.84;100.00;101152.39;106270;1253;72744;-89
2023/09/12 05:30:07;;;;;;;13.80;10.10;;;;;;;21.13;100.00;101149.77;106053;1253;62022;-86
2023/09/12 05:32:36;;;;;;;17.80;9.50;;;;;;;21.42;100.00;101148.12;106010;1253;59708;-86
2023/09/12 05:35:03;;;;;;;11.50;9.40;;;;;;;21.70;100.00;101150.55;106749;1257;71751;-86
2023/09/12 05:37:48;;;;;;;11.20;9.10;;;;;;;22.03;100.00;101157.02;106498;1253;64838;-85
2023/09/12 05:40:15;;;;;;;13.10;9.70;;;;;;;22.34;100.00;101153.41;106154;1256;72685;-87
2023/09/12 05:42:42;;;;;;;10.00;8.90;;;;;;;22.66;100.00;101157.44;105997;1256;62038;-87
2023/09/12 05:45:09;;;;;;;10.30;8.70;;;;;;;22.98;100.00;101152.87;106035;1257;59634;-85
2023/09/12 05:47:37;;;;;;;10.40;9.30;;;;;;;23.33;99.53;101149.11;106081;1257;71922;-89
2023/09/12 05:50:06;;;;;;;11.80;9.40;;;;;;;23.69;96.95;101155.63;105971;1254;62712;-87
2023/09/12 05:52:33;;;;;;;10.20;8.80;;;;;;;24.06;92.57;101155.23;106008;1259;72690;-87
2023/09/12 05:55:01;;;;;;;11.50;8.30;;;;;;;24.45;87.95;101151.23;105847;1253;60452;-88
2023/09/12 05:57:33;;;;;;;15.10;8.80;;;;;;;24.88;82.33;101151.30;106271;1252;60391;-86
2023/09/12 06:00:00;;;;;;;9.70;7.40;;;;;;;25.30;74.24;101146.71;106198;1255;72347;-86
2023/09/12 06:02:39;;;;;;;12.30;8.50;;;;;;;25.71;69.00;101144.43;107077;1257;62728;-87
2023/09/12 06:05:06;;;;;;;8.50;7.30;;;;;;;26.09;66.68;101145.37;106366;1257;72741;-88
2023/09/12 06:07:33;;;;;;;7.90;7.10;;;;;;;26.44;63.34;101144.82;106288;1257;60158;-87
2023/09/12 06:10:00;;;;;;;9.60;6.80;;;;;;;26.74;61.89;101144.75;106093;1255;59651;-90
2023/09/12 06:12:32;;;;;;;8.00;7.20;;;;;;;27.07;59.43;101146.71;106369;1257;73093;-86
2023/09/12 06:15:01;;;;;;;10.00;6.70;;;;;;;27.43;56.08;101147.00;106104;1258;64149;-87
2023/09/12 06:17:31;;;;;;;12.10;6.50;;;;;;;27.71;52.84;101147.27;106097;1258;72723;-88
2023/09/12 06:19:58;;;;;;;7.80;7.00;;;;;;;27.80;51.83;101147.23;106033;1259;59948;-88
2023/09/12 06:22:29;;;;;;;8.40;6.50;;;;;;;27.67;51.45;101144.36;106061;1253;60234;-86
2023/09/12 06:24:59;;;;;;;9.60;6.50;;;;;;;27.45;52.23;101149.31;106315;1253;71880;-90
2023/09/12 06:27:26;;;;;;;7.70;6.30;;;;;;;27.16;52.83;101148.42;106266;1258;63889;-86
2023/09/12 06:29:53;;;;;;;8.90;7.10;;;;;;;26.89;53.53;101147.69;106089;1257;72740;-85
2023/09/12 06:32:20;;;;;;;7.30;6.20;;;;;;;26.62;55.10;101151.36;106044;1259;60709;-88
2023/09/12 06:34:48;;;;;;;7.50;6.60;;;;;;;26.45;56.78;101150.05;106162;1254;60572;-86
2023/09/12 06:37:15;;;;;;;7.30;5.80;;;;;;;26.28;58.39;101155.33;106253;1256;74056;-86
2023/09/12 06:39:42;;;;;;;6.40;5.50;;;;;;;26.08;59.59;101157.11;105978;1257;63688;-87
2023/09/12 06:42:09;;;;;;;9.80;6.00;;;;;;;25.94;61.27;101154.97;106085;1256;73061;-87
2023/09/12 06:44:36;;;;;;;8.50;5.30;;;;;;;26.04;62.25;101153.61;108928;1253;59136;-86
2023/09/12 06:47:04;;;;;;;6.30;5.70;;;;;;;26.39;61.11;101153.80;109589;1253;59098;-86
2023/09/12 06:49:36;;;;;;;4.60;4.20;;;;;;;26.79;56.31;101151.86;108185;1253;74132;-86
2023/09/12 06:52:03;;;;;;;5.40;4.90;;;;;;;27.05;53.24;101156.06;107484;1257;63859;-88
2023/09/12 06:54:32;;;;;;;4.90;4.30;;;;;;;27.37;51.08;101157.67;106292;1256;71068;-86
2023/09/12 06:57:02;;;;;;;5.60;5.00;;;;;;;27.57;49.18;101160.55;106246;1258;60383;-86
2023/09/12 06:59:29;;;;;;;6.80;4.80;;;;;;;27.71;48.93;101157.30;106037;1257;60367;-86
2023/09/12 07:01:55;;;;;;;6.50;4.60;;;;;;;27.75;49.03;101162.27;106663;1254;73730;-86
2023/09/12 07:04:23;;;;;;;7.50;5.20;;;;;;;27.75;49.33;101164.09;105807;1257;64010;-88
2023/09/12 07:06:51;;;;;;;5.30;4.70;;;;;;;27.86;50.01;101163.39;105903;1252;72871;-89
2023/09/12 07:09:19;;;;;;;8.10;4.80;;;;;;;28.13;50.06;101166.67;105887;1253;60997;-87
2023/09/12 07:11:48;;;;;;;6.10;4.50;;;;;;;28.48;49.01;101168.12;105917;1253;60532;-88
2023/09/12 07:14:15;;;;;;;4.20;3.80;;;;;;;28.83;47.77;101169.65;105920;1257;73819;-88
2023/09/12 07:16:42;;;;;;;3.90;3.40;;;;;;;29.14;44.85;101172.77;105862;1253;64121;-88
2023/09/12 07:19:10;;;;;;;8.80;5.90;;;;;;;29.47;43.82;101169.50;105975;1264;72524;-88
2023/09/12 07:21:37;;;;;;;4.70;4.10;;;;;;;29.83;42.28;101165.98;105784;1254;60556;-90
2023/09/12 07:24:05;;;;;;;5.40;3.50;;;;;;;30.23;41.47;101169.02;105801;1257;60503;-86
2023/09/12 07:26:32;;;;;;;6.20;4.10;;;;;;;30.61;40.56;101166.61;106400;1259;73651;-87
2023/09/12 07:29:04;;;;;;;4.50;3.50;;;;;;;30.98;38.99;101165.58;106615;1257;63708;-88
2023/09/12 07:31:32;;;;;;;3.90;3.60;;;;;;;31.33;38.25;101165.31;108075;1253;71151;-88
2023/09/12 07:34:08;;;;;;;6.00;3.60;;;;;;;31.65;37.92;101163.20;108467;1253;59299;-87
2023/09/12 07:36:38;;;;;;;9.20;3.80;;;;;;;31.99;36.96;101159.52;109262;1252;59029;-87
2023/09/12 07:39:05;;;;;;;4.20;3.30;;;;;;;32.28;36.87;101160.65;108013;1254;73760;-89
2023/09/12 07:41:32;;;;;;;3.50;3.20;;;;;;;32.57;36.18;101160.35;105993;1253;63515;-87
2023/09/12 07:44:01;;;;;;;6.10;3.90;;;;;;;32.86;35.20;101159.75;106008;1257;73891;-88
2023/09/12 07:46:28;;;;;;;3.50;3.20;;;;;;;33.04;33.93;101157.69;105997;1257;60426;-89
2023/09/12 07:48:56;;;;;;;5.60;3.40;;;;;;;33.00;33.99;101161.70;106027;1254;60460;-87
2023/09/12 07:51:24;;;;;;;5.30;3.80;;;;;;;32.99;34.11;101159.70;106031;1257;72516;-91
2023/09/12 07:53:51;;;;;;;4.80;3.20;;;;;;;33.17;33.74;101157.04;105891;1255;62347;-87
2023/09/12 07:56:18;;;;;;;3.50;3.20;;;;;;;33.44;33.67;101157.98;106099;1259;71407;-87
2023/09/12 07:58:45;;;;;;;5.90;3.50;;;;;;;33.71;33.20;101155.46;106404;1257;60352;-88
2023/09/12 08:01:12;;;;;;;4.20;3.60;;;;;;;33.91;32.06;101156.06;106133;1255;60608;-88
2023/09/12 08:03:39;;;;;;;4.20;3.10;;;;;;;33.93;31.48;101157.26;106047;1260;73849;-88
2023/09/12 08:06:06;;;;;;;5.10;3.20;;;;;;;33.95;31.43;101154.26;106092;1257;63847;-88
2023/09/12 08:08:34;;;;;;;4.40;3.70;;;;;;;34.12;31.36;101155.72;106281;1255;72435;-86
2023/09/12 08:11:01;;;;;;;5.70;3.60;;;;;;;34.27;30.87;101158.87;106300;1257;60667;-88
2023/09/12 08:16:02;;;;;;;4.10;3.70;;;;;;;34.57;30.57;101151.38;102981;1292;602811;-85
2023/09/12 08:18:30;;;;;;;4.00;3.60;;;;;;;34.75;29.74;101151.58;105816;1269;60501;-87
2023/09/12 08:20:57;;;;;;;4.70;3.60;;;;;;;34.73;29.13;101147.89;105851;1267;60019;-86
2023/09/12 08:23:24;;;;;;;4.60;3.00;;;;;;;34.70;29.38;101146.43;105485;1267;72170;-86
2023/09/12 08:25:51;;;;;;;4.80;3.40;;;;;;;34.83;29.48;101146.17;106003;1260;62398;-87
2023/09/12 08:28:19;;;;;;;3.70;3.00;;;;;;;34.99;29.50;101142.02;105881;1257;288227;-89
2023/09/12 08:30:48;;;;;;;4.20;3.50;;;;;;;35.10;28.56;101143.19;108672;1254;59072;-86
2023/09/12 08:33:18;;;;;;;;;;;;;;;35.26;28.34;101147.05;109558;1251;59354;-85
2023/09/12 08:35:45;;;;;;;3.30;2.90;;;;;;;35.46;28.06;101146.48;109134;1254;70698;-90
2023/09/12 08:38:11;;;;;;;3.40;3.20;;;;;;;35.61;28.09;101139.95;106160;1253;62651;-85
2023/09/12 08:40:38;;;;;;;3.80;2.80;;;;;;;35.76;27.54;101139.01;106180;1251;72535;-88
2023/09/12 08:43:06;;;;;;;3.70;3.40;;;;;;;35.91;27.47;101134.52;106653;1254;60487;-89
2023/09/12 08:45:33;;;;;;;3.70;3.30;;;;;;;36.03;26.73;101129.41;106936;1251;60131;-85
2023/09/12 08:48:01;;;;;;;5.50;3.40;;;;;;;36.14;26.39;101128.35;109761;1250;71899;-87
2023/09/12 08:50:31;;;;;;;4.70;3.30;;;;;;;36.26;26.38;101128.08;109769;1251;62643;-86
2023/09/12 08:53:00;;;;;;;5.10;3.40;;;;;;;36.37;25.97;101132.59;106704;1255;71130;-88
2023/09/12 08:55:35;;;;;;;4.90;3.60;;;;;;;36.52;25.99;101128.94;106069;1256;60181;-86
2023/09/12 08:58:02;;;;;;;4.90;3.40;;;;;;;36.74;26.27;101127.83;106263;1254;60576;-90
2023/09/12 09:00:32;;;;;;;5.70;3.10;;;;;;;36.90;25.65;101121.02;106117;1251;63257;-92
2023/09/12 09:02:59;;;;;;;4.60;3.20;;;;;;;36.99;25.35;101118.98;106137;1256;59553;-88
2023/09/12 09:05:27;;;;;;;4.60;3.10;;;;;;;37.01;25.34;101118.13;106246;1251;64081;-86
2023/09/12 09:07:53;;;;;;;3.60;2.90;;;;;;;36.80;25.05;101118.42;106449;1256;59638;-89
2023/09/12 09:10:22;;;;;;;4.50;3.00;;;;;;;36.47;25.30;101117.34;106326;1251;59628;-90
2023/09/12 09:13:09;;;;;;;3.50;3.10;;;;;;;36.20;25.52;101116.63;106192;1254;64193;-88
2023/09/12 09:15:37;;;;;;;5.60;3.40;;;;;;;36.09;26.07;101113.67;106900;1254;64137;-85
2023/09/12 09:18:05;;;;;;;4.20;3.20;;;;;;;36.00;25.89;101116.91;106623;1254;72623;-88
2023/09/12 09:20:37;;;;;;;2.90;2.60;;;;;;;35.87;25.75;101112.29;106355;1251;60218;-86
2023/09/12 09:23:05;;;;;;;3.20;2.80;;;;;;;35.74;25.74;101111.60;106132;1257;60533;-89
2023/09/12 09:25:33;;;;;;;2.90;2.70;;;;;;;35.45;25.63;101112.64;106124;1254;73250;-89
2023/09/12 09:28:16;;;;;;;4.00;2.60;;;;;;;34.97;25.58;101114.20;106179;1251;63052;-90
2023/09/12 09:30:45;;;;;;;3.60;2.70;;;;;;;34.40;25.64;101115.38;106228;1251;72375;-89
2023/09/12 09:33:12;;;;;;;5.20;2.60;;;;;;;33.93;26.82;101115.18;106337;1256;60282;-88
2023/09/12 09:35:45;;;;;;;4.60;2.70;;;;;;;33.47;27.81;101115.44;106454;1251;60315;-88
2023/09/12 09:38:16;;;;;;;4.90;3.30;;;;;;;33.36;28.31;101115.89;106732;1251;72533;-88
2023/09/12 09:40:43;;;;;;;4.00;3.20;;;;;;;33.31;28.50;101115.66;106364;1256;63825;-88
2023/09/12 09:43:10;;;;;;;3.10;2.60;;;;;;;33.44;28.55;101109.20;106773;1253;71792;-86
2023/09/12 09:45:44;;;;;;;2.80;2.60;;;;;;;33.59;28.47;101110.09;108903;1251;60219;-82
2023/09/12 09:48:22;;;;;;;6.90;2.80;;;;;;;33.68;28.41;101108.95;109171;1251;59342;-88
2023/09/12 09:50:52;;;;;;;5.80;3.10;;;;;;;33.58;28.22;101112.60;108993;1251;71436;-84
2023/09/12 09:53:27;;;;;;;5.60;3.70;;;;;;;33.31;28.08;101118.30;108773;1251;63827;-86
2023/09/12 09:56:13;;;;;;;3.40;3.00;;;;;;;32.92;28.17;101115.69;106585;1251;73663;-88
2023/09/12 09:58:48;;;;;;;5.90;2.40;;;;;;;32.46;28.51;101113.63;106112;1251;60133;-89
2023/09/12 10:01:18;;;;;;;3.20;2.70;;;;;;;31.91;28.75;101110.96;106177;1251;60247;-89
2023/09/12 10:03:47;;;;;;;5.40;2.80;;;;;;;31.39;29.07;101110.48;106000;1251;71589;-88
2023/09/12 10:06:18;;;;;;;6.60;2.60;;;;;;;30.93;29.66;101112.42;106084;1251;61881;-87
2023/09/12 10:08:46;;;;;;;4.80;2.40;;;;;;;30.58;30.14;101114.93;106056;1256;72668;-87
2023/09/12 10:11:14;;;;;;;5.30;2.60;;;;;;;30.26;30.25;101114.82;105996;1251;59675;-85
2023/09/12 10:13:55;;;;;;;8.10;2.60;;;;;;;29.98;31.20;101111.52;106049;1257;59692;-84
2023/09/12 10:16:24;;;;;;;3.40;2.70;;;;;;;29.75;31.83;101111.97;106307;1251;74469;-85
2023/09/12 10:19:00;;;;;;;10.70;3.30;;;;;;;29.50;31.72;101112.05;106613;1251;62832;-89
2023/09/12 10:21:31;;;;;;;3.90;2.60;;;;;;;29.37;32.00;101109.10;106252;1256;72293;-86
2023/09/12 10:23:59;;;;;;;2.40;2.20;;;;;;;29.37;32.53;101110.89;106101;1254;60618;-85
2023/09/12 10:26:25;;;;;;;5.20;2.90;;;;;;;29.42;32.59;101106.79;106031;1256;59697;-87
2023/09/12 10:28:53;;;;;;;2.60;2.40;;;;;;;29.40;33.23;101111.14;106121;1256;73303;-85
2023/09/12 10:31:20;;;;;;;3.00;2.70;;;;;;;29.29;33.33;101109.78;106152;1255;64297;-87
2023/09/12 10:33:47;;;;;;;3.30;3.10;;;;;;;29.10;34.00;101115.74;106090;1256;73134;-87
2023/09/12 10:36:15;;;;;;;4.40;2.40;;;;;;;28.91;34.15;101119.43;105988;1251;60347;-88
2023/09/12 10:38:44;;;;;;;4.30;2.40;;;;;;;28.71;34.12;101119.32;105985;1257;59654;-87
2023/09/12 10:41:14;;;;;;;5.40;2.80;;;;;;;28.54;34.58;101113.13;105938;1256;72020;-88
2023/09/12 10:43:43;;;;;;;3.90;3.60;;;;;;;28.36;35.59;101110.19;106014;1256;63020;-87
2023/09/12 10:46:11;;;;;;;3.00;2.50;;;;;;;28.27;36.21;101109.83;106319;1251;71533;-88
2023/09/12 10:48:41;;;;;;;3.60;2.50;;;;;;;28.27;36.19;101106.71;105952;1253;60283;-88
2023/09/12 10:51:08;;;;;;;3.10;2.50;;;;;;;28.29;36.69;101106.27;105981;1257;59647;-89
2023/09/12 10:53:35;;;;;;;9.10;2.70;;;;;;;28.34;37.71;101105.18;105978;1256;72156;-87
2023/09/12 10:56:19;;;;;;;3.70;2.70;;;;;;;28.55;37.77;101103.29;105960;1251;64176;-88
2023/09/12 10:59:15;;;;;;;4.70;3.00;;;;;;;28.81;36.56;101100.20;106069;1251;72668;-88
2023/09/12 11:01:45;;;;;;;3.10;2.80;;;;;;;29.04;35.96;101093.55;105466;1257;59778;-86
2023/09/12 11:04:19;;;;;;;3.10;2.60;;;;;;;29.11;35.28;101094.40;105558;1260;59646;-86
2023/09/12 11:06:47;;;;;;;3.70;2.30;;;;;;;29.15;34.79;101089.67;105491;1262;74345;-89
2023/09/12 11:09:14;;;;;;;2.40;2.30;;;;;;;29.19;34.06;101086.25;105557;1257;64058;-87
2023/09/12 11:11:46;;;;;;;3.90;2.40;;;;;;;29.24;33.72;101085.17;106029;1258;72741;-86
2023/09/12 11:14:19;;;;;;;4.50;2.40;;;;;;;29.20;33.20;101079.97;105544;1262;59893;-87
2023/09/12 11:17:07;;;;;;;6.10;2.80;;;;;;;29.03;32.94;101084.62;105437;1257;59670;-87
2023/09/12 11:19:45;;;;;;;5.30;2.90;;;;;;;28.77;33.00;101081.98;105453;1257;74420;-86
2023/09/12 11:22:28;;;;;;;3.10;2.50;;;;;;;28.53;34.18;101077.05;105443;1257;61819;-88
2023/09/12 11:24:55;;;;;;;3.20;2.90;;;;;;;28.42;34.29;101076.17;105526;1260;72952;-85
2023/09/12 11:27:30;;;;;;;3.00;2.30;;;;;;;28.35;34.04;101074.13;105425;1257;59916;-90